createdAt,value
2018-12-21T00:00:00.729Z,6.90
2018-12-21T00:02:29.565Z,6.90
2018-12-21T00:04:58.412Z,6.90
2018-12-21T00:07:27.294Z,7.00
2018-12-21T00:09:56.091Z,7.00
2018-12-21T00:12:24.934Z,7.00
2018-12-21T00:14:53.771Z,7.00
2018-12-21T00:17:22.606Z,7.00
2018-12-21T00:19:51.444Z,7.00
2018-12-21T00:22:20.291Z,7.00
2018-12-21T00:24:49.130Z,7.00
2018-12-21T00:27:17.964Z,7.00
2018-12-21T00:29:46.802Z,7.00
2018-12-21T00:32:21.072Z,7.00
2018-12-21T00:34:56.116Z,7.00
2018-12-21T00:37:30.464Z,7.00
2018-12-21T00:40:04.775Z,7.00
2018-12-21T00:42:33.698Z,7.00
2018-12-21T00:45:06.131Z,7.00
2018-12-21T00:47:34.978Z,7.10
2018-12-21T00:50:03.835Z,7.10
2018-12-21T00:52:32.678Z,7.10
2018-12-21T00:55:01.509Z,7.10
2018-12-21T00:57:30.356Z,7.10
2018-12-21T00:59:59.204Z,7.10
2018-12-21T01:02:28.045Z,7.10
2018-12-21T01:04:56.877Z,7.10
2018-12-21T01:07:25.712Z,7.10
2018-12-21T01:09:54.569Z,7.10
2018-12-21T01:12:23.432Z,7.10
2018-12-21T01:14:52.269Z,7.10
2018-12-21T01:17:21.839Z,7.10
2018-12-21T01:19:50.689Z,7.10
2018-12-21T01:22:19.533Z,7.10
2018-12-21T01:24:48.379Z,7.10
2018-12-21T01:27:17.208Z,7.10
2018-12-21T01:29:46.041Z,7.10
2018-12-21T01:32:14.873Z,7.10
2018-12-21T01:34:43.706Z,7.10
2018-12-21T01:37:12.537Z,7.10
2018-12-21T01:39:41.375Z,7.10
2018-12-21T01:42:10.943Z,7.10
2018-12-21T01:44:39.771Z,7.10
2018-12-21T01:47:09.345Z,7.10
2018-12-21T01:49:38.176Z,7.10
2018-12-21T01:52:07.004Z,7.20
2018-12-21T01:54:35.831Z,7.20
2018-12-21T01:57:05.395Z,7.10
2018-12-21T01:59:34.231Z,7.20
2018-12-21T02:02:03.798Z,7.20
2018-12-21T02:04:32.620Z,7.20
2018-12-21T02:07:02.188Z,7.10
2018-12-21T02:09:31.015Z,7.20
2018-12-21T02:11:59.865Z,7.20
2018-12-21T02:14:28.694Z,7.20
2018-12-21T02:16:57.544Z,7.20
2018-12-21T02:19:26.377Z,7.20
2018-12-21T02:21:56.239Z,7.20
2018-12-21T02:24:24.782Z,7.20
2018-12-21T02:26:53.622Z,7.20
2018-12-21T02:29:22.470Z,7.20
2018-12-21T02:31:51.314Z,7.20
2018-12-21T02:34:20.141Z,7.20
2018-12-21T02:36:48.976Z,7.20
2018-12-21T02:39:17.803Z,7.10
2018-12-21T02:41:47.451Z,7.10
2018-12-21T02:44:16.205Z,7.20
2018-12-21T02:46:46.021Z,7.10
2018-12-21T02:49:14.600Z,7.10
2018-12-21T02:51:44.176Z,7.10
2018-12-21T02:54:13.000Z,7.10
2018-12-21T02:56:41.827Z,7.20
2018-12-21T02:59:10.670Z,7.10
2018-12-21T03:01:40.258Z,7.10
2018-12-21T03:04:09.080Z,7.10
2018-12-21T03:06:37.977Z,7.10
2018-12-21T03:09:06.756Z,7.10
2018-12-21T03:11:35.578Z,7.10
2018-12-21T03:14:04.410Z,7.10
2018-12-21T03:16:33.251Z,7.10
2018-12-21T03:19:02.104Z,7.10
2018-12-21T03:21:30.948Z,7.10
2018-12-21T03:23:59.785Z,7.10
2018-12-21T03:26:28.635Z,7.10
2018-12-21T03:28:57.472Z,7.10
2018-12-21T03:31:26.312Z,7.10
2018-12-21T03:33:55.142Z,7.10
2018-12-21T03:36:23.978Z,7.10
2018-12-21T03:38:52.800Z,7.10
2018-12-21T03:41:22.374Z,7.10
2018-12-21T03:43:51.196Z,7.10
2018-12-21T03:46:20.037Z,7.10
2018-12-21T03:48:48.867Z,7.10
2018-12-21T03:51:17.694Z,7.20
2018-12-21T03:53:46.532Z,7.20
2018-12-21T03:56:15.354Z,7.20
2018-12-21T03:58:44.178Z,7.20
2018-12-21T04:01:13.019Z,7.20
2018-12-21T04:03:42.677Z,7.20
2018-12-21T04:06:11.440Z,7.20
2018-12-21T04:08:40.288Z,7.20
2018-12-21T04:11:09.873Z,7.20
2018-12-21T04:13:38.714Z,7.30
2018-12-21T04:16:07.547Z,7.30
2018-12-21T04:18:36.368Z,7.30
2018-12-21T04:21:05.943Z,7.30
2018-12-21T04:23:34.776Z,7.30
2018-12-21T04:26:03.614Z,7.30
2018-12-21T04:28:32.455Z,7.30
2018-12-21T04:31:02.035Z,7.30
2018-12-21T04:33:30.866Z,7.40
2018-12-21T04:35:59.712Z,7.40
2018-12-21T04:38:28.539Z,7.40
2018-12-21T04:40:57.375Z,7.40
2018-12-21T04:43:35.021Z,7.40
2018-12-21T04:46:03.554Z,7.40
2018-12-21T04:48:32.387Z,7.40
2018-12-21T04:51:01.213Z,7.40
2018-12-21T04:53:30.443Z,7.40
2018-12-21T04:55:59.288Z,7.40
2018-12-21T04:58:28.129Z,7.50
2018-12-21T05:00:56.968Z,7.50
2018-12-21T05:03:25.802Z,7.50
2018-12-21T05:05:54.650Z,7.50
2018-12-21T05:08:23.497Z,7.50
2018-12-21T05:10:52.315Z,7.50
2018-12-21T05:13:21.156Z,7.50
2018-12-21T05:15:50.022Z,7.60
2018-12-21T05:18:18.847Z,7.60
2018-12-21T05:20:48.419Z,7.60
2018-12-21T05:23:17.256Z,7.60
2018-12-21T05:25:46.089Z,7.60
2018-12-21T05:28:14.920Z,7.60
2018-12-21T05:30:43.799Z,7.60
2018-12-21T05:33:12.728Z,7.60
2018-12-21T05:35:41.571Z,7.60
2018-12-21T05:38:10.410Z,7.60
2018-12-21T05:40:39.242Z,7.60
2018-12-21T05:43:08.074Z,7.50
2018-12-21T05:45:37.650Z,7.50
2018-12-21T05:48:06.480Z,7.60
2018-12-21T05:50:35.317Z,7.50
2018-12-21T05:53:04.228Z,7.50
2018-12-21T05:55:33.073Z,7.50
2018-12-21T05:58:01.922Z,7.50
2018-12-21T06:00:31.499Z,7.50
2018-12-21T06:03:00.342Z,7.60
2018-12-21T06:05:29.185Z,7.60
2018-12-21T06:07:58.776Z,7.60
2018-12-21T06:10:27.603Z,7.60
2018-12-21T06:12:57.181Z,7.60
2018-12-21T06:15:26.058Z,7.70
2018-12-21T06:17:54.896Z,7.70
2018-12-21T06:20:23.743Z,7.70
2018-12-21T06:22:52.584Z,7.70
2018-12-21T06:25:21.420Z,7.70
2018-12-21T06:27:50.261Z,7.70
2018-12-21T06:30:19.098Z,7.70
2018-12-21T06:32:48.016Z,7.70
2018-12-21T06:35:16.862Z,7.70
2018-12-21T06:37:45.692Z,7.80
2018-12-21T06:40:15.261Z,7.80
2018-12-21T06:42:44.096Z,7.80
2018-12-21T06:45:12.933Z,7.80
2018-12-21T06:47:41.769Z,7.80
2018-12-21T06:50:11.368Z,7.70
2018-12-21T06:52:40.216Z,7.70
2018-12-21T06:55:09.055Z,7.80
2018-12-21T06:57:38.635Z,7.70
2018-12-21T07:00:07.470Z,7.80
2018-12-21T07:02:36.312Z,7.80
2018-12-21T07:05:05.147Z,7.80
2018-12-21T07:07:33.982Z,7.70
2018-12-21T07:10:02.806Z,7.70
2018-12-21T07:12:32.390Z,7.70
2018-12-21T07:15:01.250Z,7.70
2018-12-21T07:17:30.083Z,7.70
2018-12-21T07:19:59.041Z,7.70
2018-12-21T07:22:27.874Z,7.80
2018-12-21T07:24:56.743Z,7.80
2018-12-21T07:27:25.609Z,7.70
2018-12-21T07:29:54.455Z,7.80
2018-12-21T07:32:23.292Z,7.70
2018-12-21T07:34:52.122Z,7.70
2018-12-21T07:37:20.962Z,7.70
2018-12-21T07:39:49.809Z,7.70
2018-12-21T07:42:18.631Z,7.80
2018-12-21T07:44:47.471Z,7.80
2018-12-21T07:47:17.032Z,7.70
2018-12-21T07:49:45.859Z,7.70
2018-12-21T07:52:15.443Z,7.70
2018-12-21T07:54:44.281Z,7.70
2018-12-21T07:57:13.109Z,7.70
2018-12-21T07:59:41.990Z,7.70
2018-12-21T08:02:10.801Z,7.70
2018-12-21T08:04:39.635Z,7.70
2018-12-21T08:07:08.466Z,7.70
2018-12-21T08:09:37.287Z,7.70
2018-12-21T08:12:06.854Z,7.70
2018-12-21T08:14:35.690Z,7.70
2018-12-21T08:17:05.270Z,7.70
2018-12-21T08:19:34.109Z,7.70
2018-12-21T08:22:02.954Z,7.70
2018-12-21T08:24:31.820Z,7.70
2018-12-21T08:27:00.654Z,7.80
2018-12-21T08:29:29.487Z,7.70
2018-12-21T08:31:58.309Z,7.70
2018-12-21T08:34:27.160Z,7.80
2018-12-21T08:36:55.989Z,7.80
2018-12-21T08:39:25.572Z,7.80
2018-12-21T08:41:54.403Z,7.80
2018-12-21T08:44:23.248Z,7.80
2018-12-21T08:46:52.080Z,7.90
2018-12-21T08:49:20.905Z,7.90
2018-12-21T08:51:49.748Z,7.90
2018-12-21T08:54:19.357Z,7.90
2018-12-21T08:56:48.158Z,7.90
2018-12-21T08:59:16.994Z,7.90
2018-12-21T09:01:45.830Z,7.90
2018-12-21T09:04:15.408Z,7.80
2018-12-21T09:06:44.242Z,7.90
2018-12-21T09:09:13.076Z,7.90
2018-12-21T09:11:41.899Z,7.90
2018-12-21T09:14:10.728Z,7.90
2018-12-21T09:16:39.562Z,7.90
2018-12-21T09:19:08.401Z,7.90
2018-12-21T09:21:37.233Z,7.90
2018-12-21T09:24:06.793Z,7.90
2018-12-21T09:26:35.632Z,7.90
2018-12-21T09:29:04.468Z,8.00
2018-12-21T09:31:33.295Z,8.00
2018-12-21T09:34:02.129Z,8.00
2018-12-21T09:36:30.960Z,8.00
2018-12-21T09:38:59.785Z,8.00
2018-12-21T09:41:28.628Z,8.10
2018-12-21T09:43:57.466Z,8.10
2018-12-21T09:46:27.038Z,8.10
2018-12-21T09:48:55.885Z,8.20
2018-12-21T09:51:24.723Z,8.20
2018-12-21T09:53:53.558Z,8.20
2018-12-21T09:56:22.405Z,8.20
2018-12-21T09:58:51.295Z,8.30
2018-12-21T10:01:20.128Z,8.30
2018-12-21T10:03:48.961Z,8.40
2018-12-21T10:06:17.803Z,8.40
2018-12-21T10:08:46.643Z,8.50
2018-12-21T10:11:15.465Z,8.50
2018-12-21T10:13:44.318Z,8.50
2018-12-21T10:16:13.164Z,8.50
2018-12-21T10:18:42.007Z,8.60
2018-12-21T10:21:10.857Z,8.60
2018-12-21T10:23:39.683Z,8.70
2018-12-21T10:26:08.535Z,8.70
2018-12-21T10:28:37.377Z,8.70
2018-12-21T10:31:06.960Z,8.70
2018-12-21T10:33:35.971Z,8.80
2018-12-21T10:36:04.764Z,8.80
2018-12-21T10:38:34.347Z,8.80
2018-12-21T10:41:03.185Z,8.90
2018-12-21T10:43:32.025Z,8.90
2018-12-21T10:46:00.860Z,8.90
2018-12-21T10:48:29.697Z,8.90
2018-12-21T10:50:58.555Z,8.90
2018-12-21T10:53:27.380Z,8.90
2018-12-21T10:55:56.223Z,8.90
2018-12-21T10:58:25.061Z,8.90
2018-12-21T11:00:53.881Z,9.00
2018-12-21T11:03:22.719Z,9.00
2018-12-21T11:05:51.545Z,9.00
2018-12-21T11:08:21.122Z,9.00
2018-12-21T11:10:49.961Z,9.00
2018-12-21T11:13:18.796Z,9.00
2018-12-21T11:15:48.637Z,9.10
2018-12-21T11:18:17.483Z,9.00
2018-12-21T11:20:46.313Z,9.00
2018-12-21T11:23:15.145Z,9.10
2018-12-21T11:25:43.982Z,9.10
2018-12-21T11:28:12.808Z,9.10
2018-12-21T11:30:41.647Z,9.10
2018-12-21T11:33:10.489Z,9.10
2018-12-21T11:35:39.323Z,9.10
2018-12-21T11:38:08.145Z,9.20
2018-12-21T11:40:37.727Z,9.10
2018-12-21T11:43:06.564Z,9.20
2018-12-21T11:45:35.406Z,9.20
2018-12-21T11:48:04.341Z,9.30
2018-12-21T11:50:33.884Z,9.30
2018-12-21T11:53:02.720Z,9.30
2018-12-21T11:55:32.295Z,9.30
2018-12-21T11:58:01.141Z,9.30
2018-12-21T12:00:29.981Z,9.30
2018-12-21T12:02:58.809Z,9.30
2018-12-21T12:05:27.649Z,9.30
2018-12-21T12:07:56.479Z,9.30
2018-12-21T12:10:25.313Z,9.30
2018-12-21T12:12:54.181Z,9.30
2018-12-21T12:15:23.019Z,9.30
2018-12-21T12:17:51.850Z,9.30
2018-12-21T12:20:20.696Z,9.40
2018-12-21T12:22:49.523Z,9.40
2018-12-21T12:25:18.357Z,9.50
2018-12-21T12:27:47.187Z,9.50
2018-12-21T12:30:16.069Z,9.50
2018-12-21T12:32:44.892Z,9.50
2018-12-21T12:35:13.732Z,9.60
2018-12-21T12:37:43.316Z,9.50
2018-12-21T12:40:12.149Z,9.60
2018-12-21T12:42:41.719Z,9.60
2018-12-21T12:45:10.546Z,9.70
2018-12-21T12:47:39.381Z,9.70
2018-12-21T12:50:08.267Z,9.70
2018-12-21T12:52:37.065Z,9.80
2018-12-21T12:55:05.901Z,9.80
2018-12-21T12:57:34.733Z,9.80
2018-12-21T13:00:03.571Z,9.90
2018-12-21T13:02:32.405Z,9.90
2018-12-21T13:05:01.249Z,10.00
2018-12-21T13:07:30.823Z,10.00
2018-12-21T13:09:59.660Z,10.00
2018-12-21T13:12:28.520Z,10.10
2018-12-21T13:14:57.372Z,10.10
2018-12-21T13:17:26.204Z,10.10
2018-12-21T13:19:55.057Z,10.10
2018-12-21T13:22:23.895Z,10.10
2018-12-21T13:24:52.732Z,10.10
2018-12-21T13:27:21.581Z,10.10
2018-12-21T13:29:50.425Z,10.10
2018-12-21T13:32:19.253Z,10.10
2018-12-21T13:34:48.109Z,10.10
2018-12-21T13:37:16.967Z,10.20
2018-12-21T13:39:45.812Z,10.20
2018-12-21T13:42:15.411Z,10.20
2018-12-21T13:44:44.252Z,10.20
2018-12-21T13:47:13.105Z,10.20
2018-12-21T13:49:41.953Z,10.30
2018-12-21T13:52:10.788Z,10.30
2018-12-21T13:54:39.618Z,10.30
2018-12-21T13:57:08.453Z,10.20
2018-12-21T13:59:37.309Z,10.20
2018-12-21T14:02:06.148Z,10.20
2018-12-21T14:04:34.987Z,10.20
2018-12-21T14:07:03.823Z,10.20
2018-12-21T14:09:32.726Z,10.20
2018-12-21T14:12:01.567Z,10.20
2018-12-21T14:14:30.428Z,10.20
2018-12-21T14:16:59.263Z,10.20
2018-12-21T14:19:28.862Z,10.20
2018-12-21T14:21:58.453Z,10.20
2018-12-21T14:24:27.306Z,10.20
2018-12-21T14:26:56.145Z,10.20
2018-12-21T14:29:24.997Z,10.20
2018-12-21T14:31:53.829Z,10.20
2018-12-21T14:34:22.668Z,10.20
2018-12-21T14:36:51.504Z,10.30
2018-12-21T14:39:20.356Z,10.30
2018-12-21T14:41:49.198Z,10.30
2018-12-21T14:44:18.773Z,10.30
2018-12-21T14:49:17.065Z,10.40
2018-12-21T14:51:45.917Z,10.40
2018-12-21T14:54:14.759Z,10.40
2018-12-21T14:56:43.592Z,10.30
2018-12-21T14:59:12.437Z,10.40
2018-12-21T15:01:41.283Z,10.40
2018-12-21T15:04:10.113Z,10.50
2018-12-21T15:06:39.736Z,10.50
2018-12-21T15:09:08.530Z,10.50
2018-12-21T15:11:37.374Z,10.60
2018-12-21T15:14:06.211Z,10.60
2018-12-21T15:16:35.063Z,10.50
2018-12-21T15:19:03.910Z,10.50
2018-12-21T15:21:32.764Z,10.50
2018-12-21T15:24:01.607Z,10.50
2018-12-21T15:26:30.441Z,10.50
2018-12-21T15:29:00.021Z,10.50
2018-12-21T15:31:28.865Z,10.40
2018-12-21T15:33:57.704Z,10.40
2018-12-21T15:36:26.542Z,10.40
2018-12-21T15:38:55.377Z,10.40
2018-12-21T15:41:24.283Z,10.30
2018-12-21T15:43:53.141Z,10.30
2018-12-21T15:46:21.998Z,10.30
2018-12-21T15:48:50.830Z,10.40
2018-12-21T15:51:19.685Z,10.40
2018-12-21T15:53:48.529Z,10.40
2018-12-21T15:56:17.381Z,10.50
2018-12-21T15:58:46.223Z,10.60
2018-12-21T16:01:15.067Z,10.60
2018-12-21T16:03:43.910Z,10.70
2018-12-21T16:06:12.740Z,10.70
2018-12-21T16:08:41.586Z,10.70
2018-12-21T16:11:10.414Z,10.70
2018-12-21T16:13:39.253Z,10.70
2018-12-21T16:16:08.855Z,10.70
2018-12-21T16:18:38.430Z,10.60
2018-12-21T16:21:07.266Z,10.50
2018-12-21T16:23:36.101Z,10.50
2018-12-21T16:26:04.949Z,10.50
2018-12-21T16:28:33.816Z,10.50
2018-12-21T16:31:02.662Z,10.50
2018-12-21T16:33:31.495Z,10.50
2018-12-21T16:36:00.341Z,10.50
2018-12-21T16:38:29.220Z,10.60
2018-12-21T16:40:58.025Z,10.60
2018-12-21T16:43:26.848Z,10.60
2018-12-21T16:45:56.432Z,10.70
2018-12-21T16:48:25.251Z,10.70
2018-12-21T16:50:54.835Z,10.60
2018-12-21T16:53:23.684Z,10.60
2018-12-21T16:55:52.533Z,10.60
2018-12-21T16:58:22.113Z,10.60
2018-12-21T17:00:50.955Z,10.60
2018-12-21T17:03:19.808Z,10.60
2018-12-21T17:05:48.645Z,10.60
2018-12-21T17:08:17.491Z,10.70
2018-12-21T17:10:46.364Z,10.70
2018-12-21T17:13:15.227Z,10.80
2018-12-21T17:15:44.060Z,10.80
2018-12-21T17:18:12.961Z,10.80
2018-12-21T17:20:41.783Z,10.80
2018-12-21T17:23:10.618Z,10.90
2018-12-21T17:25:40.247Z,10.90
2018-12-21T17:28:09.877Z,10.90
2018-12-21T17:30:38.742Z,11.00
2018-12-21T17:33:07.582Z,11.00
2018-12-21T17:35:37.560Z,11.00
2018-12-21T17:38:05.261Z,11.00
2018-12-21T17:40:34.113Z,11.00
2018-12-21T17:43:02.949Z,11.00
2018-12-21T17:45:31.813Z,11.00
2018-12-21T17:48:00.659Z,11.00
2018-12-21T17:50:30.245Z,11.10
2018-12-21T17:52:59.079Z,11.10
2018-12-21T17:55:27.923Z,11.20
2018-12-21T17:57:56.755Z,11.20
2018-12-21T18:00:26.829Z,11.20
2018-12-21T18:02:55.691Z,11.20
2018-12-21T18:05:24.534Z,11.20
2018-12-21T18:07:54.121Z,11.20
2018-12-21T18:10:22.981Z,11.30
2018-12-21T18:12:51.835Z,11.30
2018-12-21T18:15:20.712Z,11.30
2018-12-21T18:17:49.584Z,11.30
2018-12-21T18:20:18.450Z,11.30
2018-12-21T18:22:47.313Z,11.40
2018-12-21T18:25:16.172Z,11.40
2018-12-21T18:27:45.149Z,11.40
2018-12-21T18:30:15.830Z,11.30
2018-12-21T18:32:43.675Z,11.30
2018-12-21T18:35:12.507Z,11.30
2018-12-21T18:37:41.346Z,11.30
2018-12-21T18:40:10.194Z,11.30
2018-12-21T18:42:39.036Z,11.30
2018-12-21T18:45:07.958Z,11.30
2018-12-21T18:47:36.730Z,11.30
2018-12-21T18:50:05.577Z,11.30
2018-12-21T18:52:35.167Z,11.30
2018-12-21T18:55:04.018Z,11.30
2018-12-21T18:57:32.918Z,11.30
2018-12-21T19:00:01.753Z,11.30
2018-12-21T19:02:30.603Z,11.30
2018-12-21T19:04:59.477Z,11.30
2018-12-21T19:07:28.302Z,11.30
2018-12-21T19:09:57.150Z,11.30
2018-12-21T19:12:26.001Z,11.20
2018-12-21T19:14:54.836Z,11.30
2018-12-21T19:17:23.669Z,11.30
2018-12-21T19:19:53.275Z,11.30
2018-12-21T19:22:22.844Z,11.30
2018-12-21T19:24:51.722Z,11.30
2018-12-21T19:27:20.546Z,11.30
2018-12-21T19:29:49.391Z,11.30
2018-12-21T19:32:18.243Z,11.30
2018-12-21T19:34:48.600Z,11.30
2018-12-21T19:37:15.929Z,11.40
2018-12-21T19:39:44.823Z,11.40
2018-12-21T19:42:13.676Z,11.30
2018-12-21T19:44:42.678Z,11.40
2018-12-21T19:47:11.383Z,11.40
2018-12-21T19:49:40.227Z,11.40
2018-12-21T19:52:09.102Z,11.30
2018-12-21T19:54:37.989Z,11.30
2018-12-21T19:57:06.839Z,11.30
2018-12-21T19:59:35.683Z,11.30
2018-12-21T20:02:04.526Z,11.30
2018-12-21T20:04:33.374Z,11.30
2018-12-21T20:07:02.233Z,11.20
2018-12-21T20:09:31.096Z,11.20
2018-12-21T20:12:00.019Z,11.20
2018-12-21T20:14:28.851Z,11.30
2018-12-21T20:16:57.702Z,11.30
2018-12-21T20:19:26.573Z,11.30
2018-12-21T20:21:56.133Z,11.40
2018-12-21T20:24:25.013Z,11.30
2018-12-21T20:26:53.823Z,11.30
2018-12-21T20:29:23.445Z,11.40
2018-12-21T20:31:52.285Z,11.40
2018-12-21T20:34:21.139Z,11.30
2018-12-21T20:36:50.011Z,11.30
2018-12-21T20:39:18.830Z,11.30
2018-12-21T20:41:47.678Z,11.30
2018-12-21T20:44:16.534Z,11.30
2018-12-21T20:46:45.378Z,11.30
2018-12-21T20:49:14.218Z,11.30
2018-12-21T20:51:43.056Z,11.30
2018-12-21T20:54:11.938Z,11.40
2018-12-21T20:56:40.795Z,11.30
2018-12-21T20:59:10.380Z,11.30
2018-12-21T21:01:39.258Z,11.30
2018-12-21T21:04:08.069Z,11.30
2018-12-21T21:06:36.905Z,11.30
2018-12-21T21:09:05.760Z,11.30
2018-12-21T21:11:34.625Z,11.30
2018-12-21T21:14:03.485Z,11.30
2018-12-21T21:16:32.389Z,11.30
2018-12-21T21:19:01.988Z,11.30
2018-12-21T21:21:30.935Z,11.30
2018-12-21T21:24:00.557Z,11.20
2018-12-21T21:26:29.412Z,11.10
2018-12-21T21:28:58.265Z,11.10
2018-12-21T21:31:27.111Z,11.00
2018-12-21T21:33:55.962Z,10.90
2018-12-21T21:36:24.857Z,11.00
2018-12-21T21:38:54.557Z,10.90
2018-12-21T21:41:23.389Z,10.90
2018-12-21T21:43:52.258Z,10.90
2018-12-21T21:46:21.106Z,10.90
2018-12-21T21:48:50.048Z,10.90
2018-12-21T21:51:19.550Z,10.90
2018-12-21T21:53:48.419Z,11.00
2018-12-21T21:56:17.293Z,11.00
2018-12-21T21:58:46.138Z,11.00
2018-12-21T22:01:15.002Z,11.10
2018-12-21T22:03:43.849Z,11.10
2018-12-21T22:06:12.903Z,11.10
2018-12-21T22:08:41.754Z,11.10
2018-12-21T22:11:10.595Z,11.20
2018-12-21T22:13:40.176Z,11.30
2018-12-21T22:16:09.045Z,11.30
2018-12-21T22:18:37.903Z,11.30
2018-12-21T22:21:06.794Z,11.30
2018-12-21T22:23:35.648Z,11.30
2018-12-21T22:26:05.237Z,11.30
2018-12-21T22:28:34.080Z,11.40
2018-12-21T22:31:02.922Z,11.30
2018-12-21T22:33:31.784Z,11.30
2018-12-21T22:36:00.626Z,11.40
2018-12-21T22:38:29.475Z,11.30
2018-12-21T22:40:58.337Z,11.40
2018-12-21T22:43:27.200Z,11.40
2018-12-21T22:45:56.003Z,11.30
2018-12-21T22:48:24.881Z,11.30
2018-12-21T22:50:53.724Z,11.30
2018-12-21T22:55:52.027Z,11.30
2018-12-21T22:58:20.891Z,11.20
2018-12-21T23:00:49.732Z,11.20
2018-12-21T23:03:18.574Z,11.20
2018-12-21T23:05:47.406Z,11.20
2018-12-21T23:08:16.254Z,11.30
2018-12-21T23:10:45.142Z,11.30
2018-12-21T23:13:13.954Z,11.30
2018-12-21T23:15:43.534Z,11.20
2018-12-21T23:18:12.375Z,11.30
2018-12-21T23:20:41.219Z,11.30
2018-12-21T23:23:10.133Z,11.30
2018-12-21T23:25:38.902Z,11.30
2018-12-21T23:28:07.749Z,11.30
2018-12-21T23:30:36.597Z,11.30
2018-12-21T23:33:06.221Z,11.30
2018-12-21T23:35:35.794Z,11.30
2018-12-21T23:38:04.650Z,11.40
2018-12-21T23:40:33.491Z,11.30
2018-12-21T23:43:03.080Z,11.30
2018-12-21T23:45:32.672Z,11.30
2018-12-21T23:48:01.608Z,11.30
2018-12-21T23:50:30.352Z,11.20
2018-12-21T23:52:59.203Z,11.20
2018-12-21T23:55:28.050Z,11.20
2018-12-21T23:57:57.639Z,11.20
